Forside
METAR-TAF:

METAR-TAF

Lufthavne :

Busan, Sydkorea

Breddekreds: 35-11N, længdekreds: 128-56E, højde: 4 m

Aktuelle vejr

Denne rapport blev lavet for 22 minutter siden, kl. 15:00 UTC
Vind 8 kt fra nordnordøst
Temperatur 9°C
Fugtighed 71%
Tryk 1020 hPa
Sigt 10 km eller mere
Nogle få skyer i en højde af 4000 ft

METAR: RKPK 081500Z 02008KT 9999 FEW040 09/04 Q1020

Tid: 00:22 (15:22 UTC)

Vejrudsigter

Denne rapport blev lavet for 4 timer og 22 minutter siden, kl. 11:00 UTC
Foreløbig gælder fra 08 på 12 UTC til 09 på 18 UTC
Vind 6 kt fra nordnordøst
Sigt 10 km eller mere
ingen skyer under 1500m og ingen cumulonimbus
ændring
fra 09 på 04 UTC til 09 på 05 UTC
Vind 10 kt fra syd
ændring
fra 09 på 11 UTC til 09 på 12 UTC
Vind 6 kt fra nordnordvest

TAF: RKPK 081100Z 0812/0918 03006KT CAVOK TN04/0822Z TX18/0905Z BECMG 0904/0905 18010KT BECMG 0911/0912 33006KT

Vejrobservationer og prognoser fra mere end 4000 lufthavne (METAR og TAF).

De gule og røde prikker repræsenterer de meteorologiske stationer.

Flyt musen over at se navnet på stationen.

Så klik over at se vejr observationer og prognoser.

At skifte det kort: Klik på de grønne knapper med et sort kors for at zoome ind; på den grønne knap med en bindestreg for at zoome ud; eller på de grønne pile for tilstødende kort.


METAR-TAF: